sensor_id;sensor_type;location;lat;lon;timestamp;P1;durP1;ratioP1;P2;durP2;ratioP2
15246;SDS011;7726;48.820;9.248;2022-12-29T00:01:36;2.40;;;2.20;;
15246;SDS011;7726;48.820;9.248;2022-12-29T00:04:04;2.53;;;2.30;;
15246;SDS011;7726;48.820;9.248;2022-12-29T00:06:33;2.90;;;2.50;;
15246;SDS011;7726;48.820;9.248;2022-12-29T00:09:00;3.57;;;2.40;;
15246;SDS011;7726;48.820;9.248;2022-12-29T00:11:27;3.80;;;2.57;;
15246;SDS011;7726;48.820;9.248;2022-12-29T00:13:54;2.73;;;2.30;;
15246;SDS011;7726;48.820;9.248;2022-12-29T00:16:40;3.93;;;2.20;;
15246;SDS011;7726;48.820;9.248;2022-12-29T00:19:07;4.03;;;2.30;;
15246;SDS011;7726;48.820;9.248;2022-12-29T00:21:56;2.97;;;2.20;;
15246;SDS011;7726;48.820;9.248;2022-12-29T00:24:41;3.83;;;2.50;;
15246;SDS011;7726;48.820;9.248;2022-12-29T00:27:26;3.37;;;2.47;;
15246;SDS011;7726;48.820;9.248;2022-12-29T00:30:12;4.17;;;2.70;;
15246;SDS011;7726;48.820;9.248;2022-12-29T00:32:58;3.13;;;2.30;;
15246;SDS011;7726;48.820;9.248;2022-12-29T00:35:44;3.77;;;2.30;;
15246;SDS011;7726;48.820;9.248;2022-12-29T00:38:13;3.10;;;2.20;;
15246;SDS011;7726;48.820;9.248;2022-12-29T00:40:58;2.77;;;2.30;;
15246;SDS011;7726;48.820;9.248;2022-12-29T00:43:43;3.43;;;2.60;;
15246;SDS011;7726;48.820;9.248;2022-12-29T00:46:27;4.93;;;2.10;;
15246;SDS011;7726;48.820;9.248;2022-12-29T00:48:54;2.47;;;2.27;;
15246;SDS011;7726;48.820;9.248;2022-12-29T00:51:39;2.63;;;2.10;;
15246;SDS011;7726;48.820;9.248;2022-12-29T00:54:07;3.00;;;2.43;;
15246;SDS011;7726;48.820;9.248;2022-12-29T00:56:35;3.70;;;2.60;;
15246;SDS011;7726;48.820;9.248;2022-12-29T00:59:02;2.73;;;2.20;;
15246;SDS011;7726;48.820;9.248;2022-12-29T01:01:29;2.40;;;2.00;;
15246;SDS011;7726;48.820;9.248;2022-12-29T01:03:57;2.27;;;2.07;;
15246;SDS011;7726;48.820;9.248;2022-12-29T01:06:24;4.07;;;2.00;;
15246;SDS011;7726;48.820;9.248;2022-12-29T01:08:51;3.97;;;1.90;;
15246;SDS011;7726;48.820;9.248;2022-12-29T01:11:33;2.63;;;2.10;;
15246;SDS011;7726;48.820;9.248;2022-12-29T01:14:01;2.10;;;1.80;;
15246;SDS011;7726;48.820;9.248;2022-12-29T01:16:28;2.07;;;1.77;;
15246;SDS011;7726;48.820;9.248;2022-12-29T01:18:55;1.83;;;1.70;;
15246;SDS011;7726;48.820;9.248;2022-12-29T01:21:25;3.87;;;2.00;;
15246;SDS011;7726;48.820;9.248;2022-12-29T01:23:52;3.23;;;1.70;;
15246;SDS011;7726;48.820;9.248;2022-12-29T01:26:19;3.57;;;1.60;;
15246;SDS011;7726;48.820;9.248;2022-12-29T01:28:47;2.00;;;1.80;;
15246;SDS011;7726;48.820;9.248;2022-12-29T01:31:15;3.43;;;1.83;;
15246;SDS011;7726;48.820;9.248;2022-12-29T01:33:42;1.83;;;1.73;;
15246;SDS011;7726;48.820;9.248;2022-12-29T01:36:11;2.23;;;2.03;;
15246;SDS011;7726;48.820;9.248;2022-12-29T01:38:42;2.40;;;1.90;;
15246;SDS011;7726;48.820;9.248;2022-12-29T01:41:10;2.87;;;1.73;;
15246;SDS011;7726;48.820;9.248;2022-12-29T01:43:38;2.40;;;1.90;;
15246;SDS011;7726;48.820;9.248;2022-12-29T01:46:08;7.40;;;1.73;;
15246;SDS011;7726;48.820;9.248;2022-12-29T01:48:40;2.30;;;1.87;;
15246;SDS011;7726;48.820;9.248;2022-12-29T01:51:08;3.63;;;1.67;;
15246;SDS011;7726;48.820;9.248;2022-12-29T01:53:35;2.47;;;1.80;;
15246;SDS011;7726;48.820;9.248;2022-12-29T01:56:04;3.40;;;2.00;;
15246;SDS011;7726;48.820;9.248;2022-12-29T01:58:34;1.73;;;1.50;;
15246;SDS011;7726;48.820;9.248;2022-12-29T02:01:04;2.40;;;1.87;;
15246;SDS011;7726;48.820;9.248;2022-12-29T02:03:32;1.80;;;1.60;;
15246;SDS011;7726;48.820;9.248;2022-12-29T02:06:01;1.77;;;1.67;;
15246;SDS011;7726;48.820;9.248;2022-12-29T02:08:29;2.23;;;1.80;;
15246;SDS011;7726;48.820;9.248;2022-12-29T02:10:56;2.77;;;1.90;;
15246;SDS011;7726;48.820;9.248;2022-12-29T02:13:25;2.97;;;1.67;;
15246;SDS011;7726;48.820;9.248;2022-12-29T02:15:56;2.00;;;1.60;;
15246;SDS011;7726;48.820;9.248;2022-12-29T02:18:27;1.83;;;1.60;;
15246;SDS011;7726;48.820;9.248;2022-12-29T02:21:04;2.50;;;1.50;;
15246;SDS011;7726;48.820;9.248;2022-12-29T02:23:58;2.87;;;1.43;;
15246;SDS011;7726;48.820;9.248;2022-12-29T02:26:46;1.70;;;1.60;;
15246;SDS011;7726;48.820;9.248;2022-12-29T02:29:21;4.53;;;1.70;;
15246;SDS011;7726;48.820;9.248;2022-12-29T02:31:54;2.33;;;1.30;;
15246;SDS011;7726;48.820;9.248;2022-12-29T02:34:26;1.60;;;1.37;;
15246;SDS011;7726;48.820;9.248;2022-12-29T02:36:59;1.40;;;1.30;;
15246;SDS011;7726;48.820;9.248;2022-12-29T02:39:30;3.73;;;1.70;;
15246;SDS011;7726;48.820;9.248;2022-12-29T02:42:03;2.43;;;1.23;;
15246;SDS011;7726;48.820;9.248;2022-12-29T02:44:34;2.27;;;1.47;;
15246;SDS011;7726;48.820;9.248;2022-12-29T02:47:04;1.57;;;1.27;;
15246;SDS011;7726;48.820;9.248;2022-12-29T02:49:37;4.87;;;1.70;;
15246;SDS011;7726;48.820;9.248;2022-12-29T02:52:07;3.13;;;1.70;;
15246;SDS011;7726;48.820;9.248;2022-12-29T02:54:37;1.90;;;1.40;;
15246;SDS011;7726;48.820;9.248;2022-12-29T02:57:08;1.40;;;1.30;;
15246;SDS011;7726;48.820;9.248;2022-12-29T02:59:37;1.33;;;1.23;;
15246;SDS011;7726;48.820;9.248;2022-12-29T03:02:09;3.43;;;1.70;;
15246;SDS011;7726;48.820;9.248;2022-12-29T03:04:48;2.00;;;1.50;;
15246;SDS011;7726;48.820;9.248;2022-12-29T03:07:19;2.70;;;1.30;;
15246;SDS011;7726;48.820;9.248;2022-12-29T03:09:50;1.70;;;1.30;;
15246;SDS011;7726;48.820;9.248;2022-12-29T03:12:23;1.27;;;1.17;;
15246;SDS011;7726;48.820;9.248;2022-12-29T03:15:10;2.03;;;1.00;;
15246;SDS011;7726;48.820;9.248;2022-12-29T03:17:59;3.10;;;1.63;;
15246;SDS011;7726;48.820;9.248;2022-12-29T03:20:31;1.43;;;0.90;;
15246;SDS011;7726;48.820;9.248;2022-12-29T03:23:01;1.10;;;1.00;;
15246;SDS011;7726;48.820;9.248;2022-12-29T03:25:29;2.60;;;1.27;;
15246;SDS011;7726;48.820;9.248;2022-12-29T03:27:58;3.23;;;1.00;;
15246;SDS011;7726;48.820;9.248;2022-12-29T03:30:27;1.80;;;1.03;;
15246;SDS011;7726;48.820;9.248;2022-12-29T03:32:55;2.00;;;1.20;;
15246;SDS011;7726;48.820;9.248;2022-12-29T03:35:25;1.07;;;0.90;;
15246;SDS011;7726;48.820;9.248;2022-12-29T03:37:54;2.33;;;1.50;;
15246;SDS011;7726;48.820;9.248;2022-12-29T03:40:22;1.40;;;0.97;;
15246;SDS011;7726;48.820;9.248;2022-12-29T03:42:50;1.30;;;1.20;;
15246;SDS011;7726;48.820;9.248;2022-12-29T03:45:17;1.40;;;1.03;;
15246;SDS011;7726;48.820;9.248;2022-12-29T03:47:45;1.90;;;1.23;;
15246;SDS011;7726;48.820;9.248;2022-12-29T03:50:12;2.33;;;1.00;;
15246;SDS011;7726;48.820;9.248;2022-12-29T03:52:41;1.77;;;0.90;;
15246;SDS011;7726;48.820;9.248;2022-12-29T03:55:08;2.63;;;1.03;;
15246;SDS011;7726;48.820;9.248;2022-12-29T03:57:35;5.77;;;0.90;;
15246;SDS011;7726;48.820;9.248;2022-12-29T04:00:03;1.17;;;1.07;;
15246;SDS011;7726;48.820;9.248;2022-12-29T04:02:30;2.10;;;1.10;;
15246;SDS011;7726;48.820;9.248;2022-12-29T04:04:57;2.20;;;1.43;;
15246;SDS011;7726;48.820;9.248;2022-12-29T04:07:25;1.67;;;1.20;;
15246;SDS011;7726;48.820;9.248;2022-12-29T04:09:53;1.57;;;1.07;;
15246;SDS011;7726;48.820;9.248;2022-12-29T04:12:20;3.60;;;1.03;;
15246;SDS011;7726;48.820;9.248;2022-12-29T04:14:47;3.87;;;1.50;;
15246;SDS011;7726;48.820;9.248;2022-12-29T04:17:14;1.30;;;0.80;;
15246;SDS011;7726;48.820;9.248;2022-12-29T04:19:42;1.37;;;1.10;;
15246;SDS011;7726;48.820;9.248;2022-12-29T04:22:09;0.90;;;0.90;;
15246;SDS011;7726;48.820;9.248;2022-12-29T04:24:36;1.40;;;1.23;;
15246;SDS011;7726;48.820;9.248;2022-12-29T04:27:05;1.27;;;1.17;;
15246;SDS011;7726;48.820;9.248;2022-12-29T04:29:32;1.97;;;1.00;;
15246;SDS011;7726;48.820;9.248;2022-12-29T04:31:59;1.30;;;1.20;;
15246;SDS011;7726;48.820;9.248;2022-12-29T04:34:26;5.67;;;1.10;;
15246;SDS011;7726;48.820;9.248;2022-12-29T04:36:53;1.17;;;1.07;;
15246;SDS011;7726;48.820;9.248;2022-12-29T04:39:20;2.17;;;1.20;;
15246;SDS011;7726;48.820;9.248;2022-12-29T04:41:47;0.90;;;0.90;;
15246;SDS011;7726;48.820;9.248;2022-12-29T04:44:16;4.43;;;1.17;;
15246;SDS011;7726;48.820;9.248;2022-12-29T04:46:43;1.20;;;0.97;;
15246;SDS011;7726;48.820;9.248;2022-12-29T04:49:10;1.30;;;1.20;;
15246;SDS011;7726;48.820;9.248;2022-12-29T04:51:37;2.60;;;1.23;;
15246;SDS011;7726;48.820;9.248;2022-12-29T04:54:04;1.20;;;0.83;;
15246;SDS011;7726;48.820;9.248;2022-12-29T04:56:32;4.30;;;1.50;;
15246;SDS011;7726;48.820;9.248;2022-12-29T04:58:59;2.77;;;1.40;;
15246;SDS011;7726;48.820;9.248;2022-12-29T05:01:27;1.10;;;1.00;;
15246;SDS011;7726;48.820;9.248;2022-12-29T05:03:54;1.20;;;1.10;;
15246;SDS011;7726;48.820;9.248;2022-12-29T05:06:21;1.53;;;1.13;;
15246;SDS011;7726;48.820;9.248;2022-12-29T05:08:48;1.97;;;1.23;;
15246;SDS011;7726;48.820;9.248;2022-12-29T05:11:16;1.83;;;1.10;;
15246;SDS011;7726;48.820;9.248;2022-12-29T05:13:44;2.33;;;1.37;;
15246;SDS011;7726;48.820;9.248;2022-12-29T05:16:11;5.10;;;1.10;;
15246;SDS011;7726;48.820;9.248;2022-12-29T05:18:40;4.17;;;1.30;;
15246;SDS011;7726;48.820;9.248;2022-12-29T05:21:07;0.90;;;0.90;;
15246;SDS011;7726;48.820;9.248;2022-12-29T05:23:34;2.53;;;1.30;;
15246;SDS011;7726;48.820;9.248;2022-12-29T05:26:01;2.23;;;1.33;;
15246;SDS011;7726;48.820;9.248;2022-12-29T05:28:28;3.37;;;1.30;;
15246;SDS011;7726;48.820;9.248;2022-12-29T05:30:56;2.27;;;1.50;;
15246;SDS011;7726;48.820;9.248;2022-12-29T05:33:23;1.83;;;1.00;;
15246;SDS011;7726;48.820;9.248;2022-12-29T05:35:51;1.20;;;1.20;;
15246;SDS011;7726;48.820;9.248;2022-12-29T05:38:18;1.30;;;1.20;;
15246;SDS011;7726;48.820;9.248;2022-12-29T05:40:45;1.60;;;1.23;;
15246;SDS011;7726;48.820;9.248;2022-12-29T05:43:13;1.87;;;1.10;;
15246;SDS011;7726;48.820;9.248;2022-12-29T05:45:40;2.20;;;1.27;;
15246;SDS011;7726;48.820;9.248;2022-12-29T05:48:07;1.87;;;1.40;;
15246;SDS011;7726;48.820;9.248;2022-12-29T05:50:34;1.73;;;1.30;;
15246;SDS011;7726;48.820;9.248;2022-12-29T05:53:02;1.80;;;1.40;;
15246;SDS011;7726;48.820;9.248;2022-12-29T05:55:30;1.10;;;1.10;;
15246;SDS011;7726;48.820;9.248;2022-12-29T05:57:57;1.20;;;1.07;;
15246;SDS011;7726;48.820;9.248;2022-12-29T06:00:24;1.27;;;1.10;;
15246;SDS011;7726;48.820;9.248;2022-12-29T06:02:51;1.20;;;1.10;;
15246;SDS011;7726;48.820;9.248;2022-12-29T06:05:18;1.23;;;1.10;;
15246;SDS011;7726;48.820;9.248;2022-12-29T06:07:45;1.13;;;1.00;;
15246;SDS011;7726;48.820;9.248;2022-12-29T06:10:14;2.13;;;0.97;;
15246;SDS011;7726;48.820;9.248;2022-12-29T06:12:41;2.80;;;1.30;;
15246;SDS011;7726;48.820;9.248;2022-12-29T06:15:08;4.87;;;1.47;;
15246;SDS011;7726;48.820;9.248;2022-12-29T06:17:36;1.60;;;1.03;;
15246;SDS011;7726;48.820;9.248;2022-12-29T06:20:03;1.27;;;1.17;;
15246;SDS011;7726;48.820;9.248;2022-12-29T06:22:30;1.80;;;1.13;;
15246;SDS011;7726;48.820;9.248;2022-12-29T06:24:57;1.77;;;1.00;;
15246;SDS011;7726;48.820;9.248;2022-12-29T06:27:28;2.73;;;1.33;;
15246;SDS011;7726;48.820;9.248;2022-12-29T06:29:55;1.43;;;1.20;;
15246;SDS011;7726;48.820;9.248;2022-12-29T06:32:22;1.70;;;1.43;;
15246;SDS011;7726;48.820;9.248;2022-12-29T06:34:49;3.23;;;1.20;;
15246;SDS011;7726;48.820;9.248;2022-12-29T06:37:16;1.27;;;1.00;;
15246;SDS011;7726;48.820;9.248;2022-12-29T06:39:43;2.83;;;1.00;;
15246;SDS011;7726;48.820;9.248;2022-12-29T06:42:11;1.50;;;1.40;;
15246;SDS011;7726;48.820;9.248;2022-12-29T06:44:39;1.17;;;1.17;;
15246;SDS011;7726;48.820;9.248;2022-12-29T06:47:06;1.07;;;1.07;;
15246;SDS011;7726;48.820;9.248;2022-12-29T06:49:33;1.40;;;1.30;;
15246;SDS011;7726;48.820;9.248;2022-12-29T06:52:00;2.23;;;1.00;;
15246;SDS011;7726;48.820;9.248;2022-12-29T06:54:29;1.83;;;1.07;;
15246;SDS011;7726;48.820;9.248;2022-12-29T06:56:56;1.83;;;1.30;;
15246;SDS011;7726;48.820;9.248;2022-12-29T06:59:24;1.77;;;1.30;;
15246;SDS011;7726;48.820;9.248;2022-12-29T07:01:52;1.10;;;1.10;;
15246;SDS011;7726;48.820;9.248;2022-12-29T07:04:19;1.30;;;1.20;;
15246;SDS011;7726;48.820;9.248;2022-12-29T07:06:46;1.80;;;1.50;;
15246;SDS011;7726;48.820;9.248;2022-12-29T07:09:14;1.40;;;1.30;;
15246;SDS011;7726;48.820;9.248;2022-12-29T07:11:41;2.70;;;1.33;;
15246;SDS011;7726;48.820;9.248;2022-12-29T07:14:09;2.00;;;1.10;;
15246;SDS011;7726;48.820;9.248;2022-12-29T07:16:37;2.20;;;1.10;;
15246;SDS011;7726;48.820;9.248;2022-12-29T07:19:05;2.60;;;1.27;;
15246;SDS011;7726;48.820;9.248;2022-12-29T07:21:32;1.97;;;1.10;;
15246;SDS011;7726;48.820;9.248;2022-12-29T07:23:59;2.03;;;1.10;;
15246;SDS011;7726;48.820;9.248;2022-12-29T07:26:27;3.67;;;1.53;;
15246;SDS011;7726;48.820;9.248;2022-12-29T07:28:54;1.30;;;1.20;;
15246;SDS011;7726;48.820;9.248;2022-12-29T07:31:21;4.40;;;1.10;;
15246;SDS011;7726;48.820;9.248;2022-12-29T07:33:49;2.77;;;1.20;;
15246;SDS011;7726;48.820;9.248;2022-12-29T07:36:17;2.63;;;1.20;;
15246;SDS011;7726;48.820;9.248;2022-12-29T07:38:44;2.77;;;1.30;;
15246;SDS011;7726;48.820;9.248;2022-12-29T07:41:11;4.90;;;1.70;;
15246;SDS011;7726;48.820;9.248;2022-12-29T07:43:39;1.70;;;1.20;;
15246;SDS011;7726;48.820;9.248;2022-12-29T07:46:06;1.43;;;1.30;;
15246;SDS011;7726;48.820;9.248;2022-12-29T07:48:34;1.47;;;1.20;;
15246;SDS011;7726;48.820;9.248;2022-12-29T07:51:02;1.20;;;1.10;;
15246;SDS011;7726;48.820;9.248;2022-12-29T07:53:30;1.37;;;1.17;;
15246;SDS011;7726;48.820;9.248;2022-12-29T07:55:57;1.27;;;1.07;;
15246;SDS011;7726;48.820;9.248;2022-12-29T07:58:24;2.70;;;1.33;;
15246;SDS011;7726;48.820;9.248;2022-12-29T08:00:52;1.13;;;1.10;;
15246;SDS011;7726;48.820;9.248;2022-12-29T08:03:20;3.47;;;1.40;;
15246;SDS011;7726;48.820;9.248;2022-12-29T08:05:47;3.90;;;1.17;;
15246;SDS011;7726;48.820;9.248;2022-12-29T08:08:14;1.83;;;1.00;;
15246;SDS011;7726;48.820;9.248;2022-12-29T08:10:43;4.17;;;1.23;;
15246;SDS011;7726;48.820;9.248;2022-12-29T08:13:10;1.80;;;0.90;;
15246;SDS011;7726;48.820;9.248;2022-12-29T08:15:37;2.70;;;1.30;;
15246;SDS011;7726;48.820;9.248;2022-12-29T08:18:04;2.77;;;1.10;;
15246;SDS011;7726;48.820;9.248;2022-12-29T08:20:32;1.87;;;1.10;;
15246;SDS011;7726;48.820;9.248;2022-12-29T08:22:59;1.47;;;1.37;;
15246;SDS011;7726;48.820;9.248;2022-12-29T08:25:26;1.53;;;1.30;;
15246;SDS011;7726;48.820;9.248;2022-12-29T08:27:54;1.47;;;1.07;;
15246;SDS011;7726;48.820;9.248;2022-12-29T08:30:22;2.23;;;1.37;;
15246;SDS011;7726;48.820;9.248;2022-12-29T08:32:49;1.77;;;1.50;;
15246;SDS011;7726;48.820;9.248;2022-12-29T08:35:16;3.57;;;1.50;;
15246;SDS011;7726;48.820;9.248;2022-12-29T08:37:43;1.57;;;1.47;;
15246;SDS011;7726;48.820;9.248;2022-12-29T08:40:11;2.93;;;1.50;;
15246;SDS011;7726;48.820;9.248;2022-12-29T08:42:39;2.25;;;1.60;;
15246;SDS011;7726;48.820;9.248;2022-12-29T08:45:08;6.20;;;2.13;;
15246;SDS011;7726;48.820;9.248;2022-12-29T08:47:35;2.92;;;1.48;;
15246;SDS011;7726;48.820;9.248;2022-12-29T08:50:03;2.30;;;1.60;;
15246;SDS011;7726;48.820;9.248;2022-12-29T08:52:30;2.97;;;1.90;;
15246;SDS011;7726;48.820;9.248;2022-12-29T08:54:57;1.50;;;1.30;;
15246;SDS011;7726;48.820;9.248;2022-12-29T08:57:24;3.38;;;1.65;;
15246;SDS011;7726;48.820;9.248;2022-12-29T08:59:51;3.72;;;1.58;;
15246;SDS011;7726;48.820;9.248;2022-12-29T09:02:20;2.97;;;2.10;;
15246;SDS011;7726;48.820;9.248;2022-12-29T09:04:47;2.80;;;1.50;;
15246;SDS011;7726;48.820;9.248;2022-12-29T09:07:14;2.35;;;1.63;;
15246;SDS011;7726;48.820;9.248;2022-12-29T09:09:41;1.80;;;1.23;;
15246;SDS011;7726;48.820;9.248;2022-12-29T09:12:08;2.00;;;1.20;;
15246;SDS011;7726;48.820;9.248;2022-12-29T09:14:35;1.57;;;1.20;;
15246;SDS011;7726;48.820;9.248;2022-12-29T09:17:02;1.20;;;1.10;;
15246;SDS011;7726;48.820;9.248;2022-12-29T09:19:48;2.00;;;1.30;;
15246;SDS011;7726;48.820;9.248;2022-12-29T09:22:16;1.52;;;1.13;;
15246;SDS011;7726;48.820;9.248;2022-12-29T09:24:43;1.23;;;1.05;;
15246;SDS011;7726;48.820;9.248;2022-12-29T09:27:10;1.00;;;1.00;;
15246;SDS011;7726;48.820;9.248;2022-12-29T09:29:37;4.88;;;1.30;;
15246;SDS011;7726;48.820;9.248;2022-12-29T09:32:05;1.42;;;1.30;;
15246;SDS011;7726;48.820;9.248;2022-12-29T09:34:33;1.10;;;1.08;;
15246;SDS011;7726;48.820;9.248;2022-12-29T09:37:01;2.80;;;1.10;;
15246;SDS011;7726;48.820;9.248;2022-12-29T09:39:28;2.08;;;1.15;;
15246;SDS011;7726;48.820;9.248;2022-12-29T09:41:58;1.45;;;1.30;;
15246;SDS011;7726;48.820;9.248;2022-12-29T09:44:29;2.35;;;1.17;;
15246;SDS011;7726;48.820;9.248;2022-12-29T09:46:58;1.80;;;1.20;;
15246;SDS011;7726;48.820;9.248;2022-12-29T09:49:27;2.58;;;1.20;;
15246;SDS011;7726;48.820;9.248;2022-12-29T09:51:56;2.30;;;1.30;;
15246;SDS011;7726;48.820;9.248;2022-12-29T09:54:29;1.88;;;1.13;;
15246;SDS011;7726;48.820;9.248;2022-12-29T09:56:58;2.47;;;1.20;;
15246;SDS011;7726;48.820;9.248;2022-12-29T09:59:26;1.42;;;1.33;;
15246;SDS011;7726;48.820;9.248;2022-12-29T10:01:58;2.38;;;1.20;;
15246;SDS011;7726;48.820;9.248;2022-12-29T10:04:26;2.90;;;1.05;;
15246;SDS011;7726;48.820;9.248;2022-12-29T10:06:54;3.90;;;1.50;;
15246;SDS011;7726;48.820;9.248;2022-12-29T10:09:24;2.08;;;1.33;;
15246;SDS011;7726;48.820;9.248;2022-12-29T10:11:58;2.80;;;1.30;;
15246;SDS011;7726;48.820;9.248;2022-12-29T10:14:31;2.42;;;1.40;;
15246;SDS011;7726;48.820;9.248;2022-12-29T10:17:01;2.22;;;1.27;;
15246;SDS011;7726;48.820;9.248;2022-12-29T10:19:38;4.57;;;1.40;;
15246;SDS011;7726;48.820;9.248;2022-12-29T10:22:11;2.10;;;1.23;;
15246;SDS011;7726;48.820;9.248;2022-12-29T10:24:42;1.75;;;1.30;;
15246;SDS011;7726;48.820;9.248;2022-12-29T10:27:12;1.40;;;1.30;;
15246;SDS011;7726;48.820;9.248;2022-12-29T10:29:41;5.97;;;1.20;;
15246;SDS011;7726;48.820;9.248;2022-12-29T10:32:13;2.55;;;1.27;;
15246;SDS011;7726;48.820;9.248;2022-12-29T10:34:44;2.08;;;1.48;;
15246;SDS011;7726;48.820;9.248;2022-12-29T10:37:14;2.72;;;1.50;;
15246;SDS011;7726;48.820;9.248;2022-12-29T10:39:48;3.17;;;1.48;;
15246;SDS011;7726;48.820;9.248;2022-12-29T10:42:19;2.45;;;1.35;;
15246;SDS011;7726;48.820;9.248;2022-12-29T10:44:48;3.58;;;1.35;;
15246;SDS011;7726;48.820;9.248;2022-12-29T10:47:16;2.40;;;1.58;;
15246;SDS011;7726;48.820;9.248;2022-12-29T10:49:46;3.20;;;1.70;;
15246;SDS011;7726;48.820;9.248;2022-12-29T10:52:14;1.80;;;1.10;;
15246;SDS011;7726;48.820;9.248;2022-12-29T10:54:44;3.05;;;1.25;;
15246;SDS011;7726;48.820;9.248;2022-12-29T10:57:16;2.42;;;1.58;;
15246;SDS011;7726;48.820;9.248;2022-12-29T10:59:46;1.63;;;1.13;;
15246;SDS011;7726;48.820;9.248;2022-12-29T11:02:26;3.45;;;1.40;;
15246;SDS011;7726;48.820;9.248;2022-12-29T11:04:57;4.13;;;1.50;;
15246;SDS011;7726;48.820;9.248;2022-12-29T11:07:28;1.60;;;1.17;;
15246;SDS011;7726;48.820;9.248;2022-12-29T11:09:55;2.22;;;1.10;;
15246;SDS011;7726;48.820;9.248;2022-12-29T11:12:42;1.95;;;1.73;;
15246;SDS011;7726;48.820;9.248;2022-12-29T11:15:22;2.88;;;1.23;;
15246;SDS011;7726;48.820;9.248;2022-12-29T11:17:50;3.78;;;1.50;;
15246;SDS011;7726;48.820;9.248;2022-12-29T11:20:31;1.58;;;1.20;;
15246;SDS011;7726;48.820;9.248;2022-12-29T11:22:59;1.85;;;1.27;;
15246;SDS011;7726;48.820;9.248;2022-12-29T11:25:26;4.53;;;1.40;;
15246;SDS011;7726;48.820;9.248;2022-12-29T11:27:55;2.40;;;1.02;;
15246;SDS011;7726;48.820;9.248;2022-12-29T11:30:25;3.08;;;1.40;;
15246;SDS011;7726;48.820;9.248;2022-12-29T11:32:53;1.52;;;1.30;;
15246;SDS011;7726;48.820;9.248;2022-12-29T11:35:31;2.42;;;1.42;;
15246;SDS011;7726;48.820;9.248;2022-12-29T11:37:59;2.28;;;1.25;;
15246;SDS011;7726;48.820;9.248;2022-12-29T11:40:26;1.25;;;1.15;;
15246;SDS011;7726;48.820;9.248;2022-12-29T11:42:55;1.30;;;1.20;;
15246;SDS011;7726;48.820;9.248;2022-12-29T11:45:24;1.20;;;1.10;;
15246;SDS011;7726;48.820;9.248;2022-12-29T11:47:53;1.20;;;1.10;;
15246;SDS011;7726;48.820;9.248;2022-12-29T11:50:22;2.50;;;1.40;;
15246;SDS011;7726;48.820;9.248;2022-12-29T11:52:50;1.48;;;1.35;;
15246;SDS011;7726;48.820;9.248;2022-12-29T11:55:24;2.35;;;1.40;;
15246;SDS011;7726;48.820;9.248;2022-12-29T11:57:51;2.22;;;1.50;;
15246;SDS011;7726;48.820;9.248;2022-12-29T12:00:20;3.45;;;1.40;;
15246;SDS011;7726;48.820;9.248;2022-12-29T12:02:52;3.15;;;1.20;;
15246;SDS011;7726;48.820;9.248;2022-12-29T12:05:23;2.58;;;1.65;;
15246;SDS011;7726;48.820;9.248;2022-12-29T12:07:54;2.90;;;1.10;;
15246;SDS011;7726;48.820;9.248;2022-12-29T12:10:25;1.67;;;1.08;;
15246;SDS011;7726;48.820;9.248;2022-12-29T12:12:56;2.63;;;1.40;;
15246;SDS011;7726;48.820;9.248;2022-12-29T12:15:24;1.67;;;0.98;;
15246;SDS011;7726;48.820;9.248;2022-12-29T12:17:57;3.17;;;1.30;;
15246;SDS011;7726;48.820;9.248;2022-12-29T12:20:28;4.32;;;1.60;;
15246;SDS011;7726;48.820;9.248;2022-12-29T12:23:02;1.52;;;1.27;;
15246;SDS011;7726;48.820;9.248;2022-12-29T12:25:37;1.95;;;1.50;;
15246;SDS011;7726;48.820;9.248;2022-12-29T12:28:05;1.95;;;1.42;;
15246;SDS011;7726;48.820;9.248;2022-12-29T12:30:37;1.58;;;1.30;;
15246;SDS011;7726;48.820;9.248;2022-12-29T12:33:10;3.92;;;1.60;;
15246;SDS011;7726;48.820;9.248;2022-12-29T12:35:42;2.97;;;1.75;;
15246;SDS011;7726;48.820;9.248;2022-12-29T12:38:14;1.63;;;1.30;;
15246;SDS011;7726;48.820;9.248;2022-12-29T12:40:53;3.53;;;1.20;;
15246;SDS011;7726;48.820;9.248;2022-12-29T12:43:32;2.83;;;1.25;;
15246;SDS011;7726;48.820;9.248;2022-12-29T12:46:05;3.08;;;1.40;;
15246;SDS011;7726;48.820;9.248;2022-12-29T12:48:44;1.80;;;1.30;;
15246;SDS011;7726;48.820;9.248;2022-12-29T12:51:16;1.25;;;1.10;;
15246;SDS011;7726;48.820;9.248;2022-12-29T12:53:49;3.35;;;1.20;;
15246;SDS011;7726;48.820;9.248;2022-12-29T12:56:27;2.13;;;1.00;;
15246;SDS011;7726;48.820;9.248;2022-12-29T12:58:59;1.45;;;1.10;;
15246;SDS011;7726;48.820;9.248;2022-12-29T13:01:32;3.30;;;1.17;;
15246;SDS011;7726;48.820;9.248;2022-12-29T13:06:49;1.88;;;1.20;;
15246;SDS011;7726;48.820;9.248;2022-12-29T13:09:28;2.80;;;1.50;;
15246;SDS011;7726;48.820;9.248;2022-12-29T13:12:01;1.42;;;1.33;;
15246;SDS011;7726;48.820;9.248;2022-12-29T13:14:34;2.22;;;1.45;;
15246;SDS011;7726;48.820;9.248;2022-12-29T13:17:06;1.85;;;1.20;;
15246;SDS011;7726;48.820;9.248;2022-12-29T13:19:36;1.50;;;1.30;;
15246;SDS011;7726;48.820;9.248;2022-12-29T13:22:07;2.50;;;1.48;;
15246;SDS011;7726;48.820;9.248;2022-12-29T13:24:41;3.90;;;1.15;;
15246;SDS011;7726;48.820;9.248;2022-12-29T13:27:13;3.53;;;2.05;;
15246;SDS011;7726;48.820;9.248;2022-12-29T13:29:45;2.55;;;1.50;;
15246;SDS011;7726;48.820;9.248;2022-12-29T13:32:17;1.30;;;1.20;;
15246;SDS011;7726;48.820;9.248;2022-12-29T13:34:49;1.92;;;1.38;;
15246;SDS011;7726;48.820;9.248;2022-12-29T13:37:22;2.50;;;1.25;;
15246;SDS011;7726;48.820;9.248;2022-12-29T13:39:52;1.50;;;1.40;;
15246;SDS011;7726;48.820;9.248;2022-12-29T13:42:22;1.45;;;1.20;;
15246;SDS011;7726;48.820;9.248;2022-12-29T13:44:51;1.83;;;1.20;;
15246;SDS011;7726;48.820;9.248;2022-12-29T13:47:21;1.92;;;1.25;;
15246;SDS011;7726;48.820;9.248;2022-12-29T13:49:51;1.65;;;1.20;;
15246;SDS011;7726;48.820;9.248;2022-12-29T13:52:21;2.78;;;1.25;;
15246;SDS011;7726;48.820;9.248;2022-12-29T13:54:55;1.85;;;1.27;;
15246;SDS011;7726;48.820;9.248;2022-12-29T13:57:29;1.75;;;1.15;;
15246;SDS011;7726;48.820;9.248;2022-12-29T13:59:59;1.05;;;1.00;;
15246;SDS011;7726;48.820;9.248;2022-12-29T14:02:31;1.08;;;1.05;;
15246;SDS011;7726;48.820;9.248;2022-12-29T14:05:04;1.98;;;1.42;;
15246;SDS011;7726;48.820;9.248;2022-12-29T14:07:35;1.05;;;1.05;;
15246;SDS011;7726;48.820;9.248;2022-12-29T14:10:05;1.55;;;1.42;;
15246;SDS011;7726;48.820;9.248;2022-12-29T14:12:35;3.75;;;1.92;;
15246;SDS011;7726;48.820;9.248;2022-12-29T14:15:13;2.38;;;1.30;;
15246;SDS011;7726;48.820;9.248;2022-12-29T14:17:42;1.67;;;1.55;;
15246;SDS011;7726;48.820;9.248;2022-12-29T14:20:16;1.98;;;1.70;;
15246;SDS011;7726;48.820;9.248;2022-12-29T14:22:54;3.20;;;1.20;;
15246;SDS011;7726;48.820;9.248;2022-12-29T14:28:16;1.60;;;1.50;;
15246;SDS011;7726;48.820;9.248;2022-12-29T14:30:49;1.50;;;1.40;;
15246;SDS011;7726;48.820;9.248;2022-12-29T14:33:17;2.42;;;1.30;;
15246;SDS011;7726;48.820;9.248;2022-12-29T14:35:48;2.20;;;1.50;;
15246;SDS011;7726;48.820;9.248;2022-12-29T14:38:21;1.60;;;1.50;;
15246;SDS011;7726;48.820;9.248;2022-12-29T14:40:49;2.75;;;1.80;;
15246;SDS011;7726;48.820;9.248;2022-12-29T14:43:26;2.28;;;1.95;;
15246;SDS011;7726;48.820;9.248;2022-12-29T14:45:55;1.52;;;1.42;;
15246;SDS011;7726;48.820;9.248;2022-12-29T14:48:31;1.70;;;1.52;;
15246;SDS011;7726;48.820;9.248;2022-12-29T14:50:59;2.22;;;1.48;;
15246;SDS011;7726;48.820;9.248;2022-12-29T14:53:43;2.47;;;2.08;;
15246;SDS011;7726;48.820;9.248;2022-12-29T14:56:10;1.65;;;1.55;;
15246;SDS011;7726;48.820;9.248;2022-12-29T14:58:41;2.22;;;1.83;;
15246;SDS011;7726;48.820;9.248;2022-12-29T15:01:15;2.35;;;1.85;;
15246;SDS011;7726;48.820;9.248;2022-12-29T15:03:44;2.03;;;1.60;;
15246;SDS011;7726;48.820;9.248;2022-12-29T15:06:12;2.05;;;1.60;;
15246;SDS011;7726;48.820;9.248;2022-12-29T15:08:44;2.35;;;1.90;;
15246;SDS011;7726;48.820;9.248;2022-12-29T15:11:14;2.35;;;1.92;;
15246;SDS011;7726;48.820;9.248;2022-12-29T15:13:43;3.35;;;1.73;;
15246;SDS011;7726;48.820;9.248;2022-12-29T15:16:20;2.35;;;1.70;;
15246;SDS011;7726;48.820;9.248;2022-12-29T15:18:48;2.85;;;1.40;;
15246;SDS011;7726;48.820;9.248;2022-12-29T15:21:15;5.07;;;1.35;;
15246;SDS011;7726;48.820;9.248;2022-12-29T15:23:43;3.63;;;1.60;;